createdAt,value
2017-06-24T00:00:28.940Z,15.10
2017-06-24T00:02:55.951Z,15.77
2017-06-24T00:05:22.616Z,14.03
2017-06-24T00:07:49.283Z,13.60
2017-06-24T00:10:15.967Z,14.13
2017-06-24T00:12:42.642Z,14.63
2017-06-24T00:15:09.304Z,14.80
2017-06-24T00:17:35.991Z,14.90
2017-06-24T00:20:02.665Z,16.43
2017-06-24T00:22:29.394Z,14.20
2017-06-24T00:24:56.083Z,14.53
2017-06-24T00:27:22.774Z,15.03
2017-06-24T00:29:49.434Z,14.43
2017-06-24T00:32:16.132Z,15.87
2017-06-24T00:34:42.819Z,14.80
2017-06-24T00:37:09.475Z,15.90
2017-06-24T00:39:36.190Z,15.37
2017-06-24T00:42:02.848Z,14.63
2017-06-24T00:44:29.532Z,17.00
2017-06-24T00:46:56.238Z,14.57
2017-06-24T00:49:22.928Z,15.43
2017-06-24T00:51:49.593Z,14.10
2017-06-24T00:54:16.271Z,16.20
2017-06-24T00:56:42.935Z,15.33
2017-06-24T00:59:09.599Z,15.40
2017-06-24T01:01:36.316Z,17.10
2017-06-24T01:04:02.986Z,17.80
2017-06-24T01:06:29.654Z,17.53
2017-06-24T01:08:56.479Z,16.10
2017-06-24T01:11:23.167Z,16.90
2017-06-24T01:13:49.827Z,17.57
2017-06-24T01:16:16.518Z,16.70
2017-06-24T01:18:43.186Z,17.23
2017-06-24T01:21:09.856Z,17.97
2017-06-24T01:23:36.545Z,16.73
2017-06-24T01:26:03.213Z,16.60
2017-06-24T01:28:29.880Z,17.63
2017-06-24T01:30:56.575Z,17.60
2017-06-24T01:33:23.244Z,18.20
2017-06-24T01:35:49.909Z,17.37
2017-06-24T01:38:16.623Z,18.27
2017-06-24T01:40:43.287Z,18.70
2017-06-24T01:43:09.967Z,19.20
2017-06-24T01:45:36.696Z,19.00
2017-06-24T01:48:03.361Z,20.03
2017-06-24T01:50:30.032Z,21.97
2017-06-24T01:52:57.004Z,17.97
2017-06-24T01:55:23.672Z,17.60
2017-06-24T01:57:50.335Z,20.27
2017-06-24T02:00:17.032Z,18.67
2017-06-24T02:02:43.700Z,18.27
2017-06-24T02:05:10.365Z,18.23
2017-06-24T02:07:37.824Z,18.37
2017-06-24T02:10:04.528Z,18.40
2017-06-24T02:12:31.196Z,19.77
2017-06-24T02:14:57.887Z,19.30
2017-06-24T02:17:24.555Z,18.40
2017-06-24T02:19:51.213Z,18.10
2017-06-24T02:22:18.000Z,17.60
2017-06-24T02:24:44.673Z,18.77
2017-06-24T02:27:11.331Z,19.07
2017-06-24T02:29:38.026Z,18.40
2017-06-24T02:32:04.777Z,19.00
2017-06-24T02:34:31.441Z,18.27
2017-06-24T02:36:58.123Z,19.63
2017-06-24T02:39:24.793Z,19.23
2017-06-24T02:41:51.460Z,20.10
2017-06-24T02:44:18.447Z,21.53
2017-06-24T02:46:45.111Z,18.40
2017-06-24T02:49:11.782Z,20.40
2017-06-24T02:51:38.503Z,20.17
2017-06-24T02:54:05.171Z,20.17
2017-06-24T02:56:31.832Z,20.87
2017-06-24T02:58:58.528Z,19.93
2017-06-24T03:01:25.192Z,20.23
2017-06-24T03:03:51.854Z,20.27
2017-06-24T03:06:18.552Z,21.70
2017-06-24T03:08:45.225Z,20.57
2017-06-24T03:11:11.903Z,19.40
2017-06-24T03:13:38.606Z,19.60
2017-06-24T03:16:05.281Z,19.00
2017-06-24T03:18:31.942Z,21.37
2017-06-24T03:20:58.624Z,19.07
2017-06-24T03:23:25.302Z,19.57
2017-06-24T03:25:51.962Z,21.03
2017-06-24T03:28:18.651Z,18.83
2017-06-24T03:30:45.309Z,20.30
2017-06-24T03:33:11.975Z,20.13
2017-06-24T03:35:38.668Z,19.10
2017-06-24T03:38:05.331Z,18.97
2017-06-24T03:40:31.993Z,19.80
2017-06-24T03:42:58.789Z,20.03
2017-06-24T03:45:25.448Z,20.00
2017-06-24T03:47:52.112Z,19.83
2017-06-24T03:50:18.805Z,19.70
2017-06-24T03:52:45.468Z,18.73
2017-06-24T03:55:12.135Z,20.17
2017-06-24T03:57:38.824Z,19.10
2017-06-24T04:00:05.484Z,20.37
2017-06-24T04:02:32.144Z,17.97
2017-06-24T04:04:58.835Z,19.47
2017-06-24T04:07:25.497Z,19.90
2017-06-24T04:09:52.158Z,18.50
2017-06-24T04:12:18.849Z,19.37
2017-06-24T04:14:45.515Z,19.53
2017-06-24T04:17:12.175Z,19.07
2017-06-24T04:19:38.860Z,18.63
2017-06-24T04:22:05.528Z,17.50
2017-06-24T04:24:32.196Z,17.90
2017-06-24T04:26:58.878Z,19.10
2017-06-24T04:29:25.537Z,17.70
2017-06-24T04:31:52.208Z,16.47
2017-06-24T04:34:18.888Z,17.77
2017-06-24T04:36:45.556Z,16.90
2017-06-24T04:39:12.217Z,19.67
2017-06-24T04:41:38.900Z,18.57
2017-06-24T04:44:05.571Z,19.03
2017-06-24T04:46:32.234Z,16.93
2017-06-24T04:48:58.923Z,17.60
2017-06-24T04:51:25.594Z,18.90
2017-06-24T04:53:52.251Z,17.67
2017-06-24T04:56:19.042Z,18.07
2017-06-24T04:58:45.714Z,18.50
2017-06-24T05:01:12.381Z,18.60
2017-06-24T05:03:39.067Z,18.83
2017-06-24T05:06:05.723Z,17.13
2017-06-24T05:08:32.384Z,19.43
2017-06-24T05:10:59.052Z,19.40
2017-06-24T05:13:25.735Z,19.07
2017-06-24T05:15:52.403Z,18.87
2017-06-24T05:18:19.129Z,18.10
2017-06-24T05:20:45.785Z,18.57
2017-06-24T05:23:12.445Z,19.13
2017-06-24T05:25:39.127Z,17.63
2017-06-24T05:28:05.800Z,19.73
2017-06-24T05:30:32.459Z,19.30
2017-06-24T05:32:59.177Z,21.50
2017-06-24T05:35:25.842Z,18.93
2017-06-24T05:37:52.530Z,21.23
2017-06-24T05:40:19.228Z,19.10
2017-06-24T05:42:45.908Z,19.97
2017-06-24T05:45:12.572Z,19.93
2017-06-24T05:47:39.246Z,18.80
2017-06-24T05:50:05.915Z,21.80
2017-06-24T05:52:32.583Z,20.23
2017-06-24T05:54:59.272Z,20.27
2017-06-24T05:57:25.936Z,19.70
2017-06-24T05:59:52.600Z,19.77
2017-06-24T06:02:19.309Z,20.90
2017-06-24T06:04:45.968Z,20.77
2017-06-24T06:07:12.635Z,20.00
2017-06-24T06:09:39.310Z,20.20
2017-06-24T06:12:05.963Z,20.30
2017-06-24T06:14:32.627Z,21.80
2017-06-24T06:16:59.300Z,19.37
2017-06-24T06:19:25.972Z,20.03
2017-06-24T06:21:52.636Z,19.70
2017-06-24T06:24:19.330Z,19.57
2017-06-24T06:26:46.346Z,20.13
2017-06-24T06:29:13.010Z,18.40
2017-06-24T06:31:39.712Z,19.80
2017-06-24T06:34:06.381Z,19.97
2017-06-24T06:36:33.058Z,19.57
2017-06-24T06:38:59.742Z,18.67
2017-06-24T06:41:26.400Z,20.13
2017-06-24T06:43:53.079Z,20.73
2017-06-24T06:46:19.770Z,19.57
2017-06-24T06:48:46.456Z,19.40
2017-06-24T06:51:13.121Z,19.23
2017-06-24T06:53:39.812Z,20.57
2017-06-24T06:56:06.479Z,18.53
2017-06-24T06:58:33.144Z,18.73
2017-06-24T07:00:59.826Z,18.80
2017-06-24T07:03:26.567Z,18.63
2017-06-24T07:05:53.233Z,18.37
2017-06-24T07:08:19.924Z,21.53
2017-06-24T07:10:46.616Z,17.30
2017-06-24T07:13:13.284Z,17.70
2017-06-24T07:15:39.965Z,18.97
2017-06-24T07:18:06.652Z,19.20
2017-06-24T07:20:33.403Z,18.40
2017-06-24T07:23:00.123Z,19.03
2017-06-24T07:25:26.807Z,17.90
2017-06-24T07:27:53.479Z,18.47
2017-06-24T07:30:20.145Z,18.03
2017-06-24T07:32:46.846Z,22.13
2017-06-24T07:35:13.503Z,17.47
2017-06-24T07:37:40.188Z,17.37
2017-06-24T07:40:06.870Z,18.00
2017-06-24T07:42:33.612Z,18.23
2017-06-24T07:45:00.280Z,16.70
2017-06-24T07:47:26.974Z,17.30
2017-06-24T07:49:53.644Z,18.77
2017-06-24T07:52:20.324Z,18.60
2017-06-24T07:54:47.062Z,16.63
2017-06-24T07:57:13.779Z,16.77
2017-06-24T07:59:40.495Z,19.00
2017-06-24T08:02:07.166Z,17.53
2017-06-24T08:04:33.864Z,17.57
2017-06-24T08:07:00.587Z,16.63
2017-06-24T08:09:27.540Z,16.27
2017-06-24T08:11:54.240Z,15.90
2017-06-24T08:14:20.947Z,19.23
2017-06-24T08:16:47.676Z,16.30
2017-06-24T08:19:14.387Z,17.97
2017-06-24T08:21:42.321Z,16.90
2017-06-24T08:24:09.047Z,18.77
2017-06-24T08:26:35.729Z,16.97
2017-06-24T08:29:02.427Z,17.07
2017-06-24T08:31:29.129Z,17.47
2017-06-24T08:33:55.819Z,15.77
2017-06-24T08:36:22.508Z,20.10
2017-06-24T08:38:49.215Z,18.33
2017-06-24T08:41:16.137Z,19.10
2017-06-24T08:43:42.887Z,17.17
2017-06-24T08:46:09.639Z,17.13
2017-06-24T08:48:36.439Z,17.30
2017-06-24T08:51:03.125Z,16.57
2017-06-24T08:53:29.789Z,15.27
2017-06-24T08:55:56.477Z,17.70
2017-06-24T08:58:23.192Z,16.17
2017-06-24T09:00:49.890Z,18.13
2017-06-24T09:03:16.620Z,16.40
2017-06-24T09:05:43.327Z,15.73
2017-06-24T09:08:10.026Z,15.77
2017-06-24T09:10:36.721Z,17.17
2017-06-24T09:13:03.417Z,17.43
2017-06-24T09:15:30.076Z,15.87
2017-06-24T09:17:56.762Z,18.30
2017-06-24T09:20:23.431Z,22.00
2017-06-24T09:22:50.122Z,18.17
2017-06-24T09:25:16.813Z,16.67
2017-06-24T09:27:43.506Z,17.60
2017-06-24T09:30:10.189Z,17.50
2017-06-24T09:32:37.211Z,17.60
2017-06-24T09:35:03.886Z,16.93
2017-06-24T09:37:30.569Z,17.87
2017-06-24T09:39:57.271Z,18.00
2017-06-24T09:42:23.975Z,16.90
2017-06-24T09:44:50.668Z,19.17
2017-06-24T09:47:17.360Z,18.93
2017-06-24T09:49:44.055Z,17.80
2017-06-24T09:52:10.860Z,17.67
2017-06-24T09:54:37.539Z,18.70
2017-06-24T09:57:04.348Z,16.77
2017-06-24T09:59:31.026Z,17.33
2017-06-24T10:01:57.728Z,16.63
2017-06-24T10:04:24.409Z,16.53
2017-06-24T10:06:51.099Z,17.57
2017-06-24T10:09:17.783Z,16.63
2017-06-24T10:11:44.489Z,17.17
2017-06-24T10:14:11.230Z,15.77
2017-06-24T10:16:37.924Z,15.10
2017-06-24T10:19:04.620Z,18.20
2017-06-24T10:21:31.337Z,15.67
2017-06-24T10:23:58.029Z,15.37
2017-06-24T10:26:24.733Z,16.07
2017-06-24T10:28:51.437Z,20.57
2017-06-24T10:31:18.360Z,15.80
2017-06-24T10:33:45.052Z,14.43
2017-06-24T10:36:11.755Z,15.57
2017-06-24T10:38:38.487Z,18.30
2017-06-24T10:41:05.177Z,15.63
2017-06-24T10:43:31.872Z,15.30
2017-06-24T10:45:58.636Z,15.80
2017-06-24T10:48:25.515Z,15.33
2017-06-24T10:50:52.228Z,15.97
2017-06-24T10:53:19.130Z,16.87
2017-06-24T10:55:45.862Z,14.30
2017-06-24T10:58:12.698Z,15.73
2017-06-24T11:00:39.440Z,15.60
2017-06-24T11:03:06.135Z,14.00
2017-06-24T11:05:32.829Z,14.63
2017-06-24T11:07:59.516Z,16.50
2017-06-24T11:10:26.231Z,15.20
2017-06-24T11:12:52.918Z,14.90
2017-06-24T11:15:19.625Z,15.57
2017-06-24T11:17:46.295Z,14.60
2017-06-24T11:20:13.000Z,16.00
2017-06-24T11:22:39.665Z,14.23
2017-06-24T11:25:06.455Z,16.03
2017-06-24T11:27:33.130Z,14.10
2017-06-24T11:29:59.823Z,13.90
2017-06-24T11:32:26.482Z,13.80
2017-06-24T11:34:53.195Z,13.13
2017-06-24T11:37:19.856Z,13.07
2017-06-24T11:39:46.521Z,13.80
2017-06-24T11:42:13.259Z,12.73
2017-06-24T11:44:39.928Z,14.90
2017-06-24T11:47:06.631Z,11.40
2017-06-24T11:49:33.325Z,11.67
2017-06-24T11:52:00.175Z,11.80
2017-06-24T11:54:26.869Z,10.73
2017-06-24T11:56:53.600Z,10.97
2017-06-24T11:59:20.288Z,10.63
2017-06-24T12:01:46.972Z,11.97
2017-06-24T12:04:13.673Z,11.00
2017-06-24T12:06:40.358Z,10.90
2017-06-24T12:09:07.043Z,10.60
2017-06-24T12:11:33.818Z,10.50
2017-06-24T12:14:00.499Z,10.80
2017-06-24T12:16:27.211Z,11.00
2017-06-24T12:18:53.892Z,9.40
2017-06-24T12:21:20.622Z,10.93
2017-06-24T12:23:47.326Z,9.80
2017-06-24T12:26:14.080Z,10.67
2017-06-24T12:28:40.775Z,10.70
2017-06-24T12:31:07.541Z,10.97
2017-06-24T12:33:34.234Z,11.00
2017-06-24T12:36:00.925Z,11.27
2017-06-24T12:38:27.645Z,10.70
2017-06-24T12:40:54.315Z,10.07
2017-06-24T12:43:21.102Z,10.60
2017-06-24T12:45:47.786Z,10.47
2017-06-24T12:48:14.488Z,11.13
2017-06-24T12:50:41.170Z,11.97
2017-06-24T12:53:07.848Z,10.30
2017-06-24T12:55:34.615Z,11.33
2017-06-24T12:58:01.291Z,13.03
2017-06-24T13:00:27.981Z,11.83
2017-06-24T13:02:54.848Z,10.67
2017-06-24T13:05:21.528Z,11.87
2017-06-24T13:07:48.427Z,13.53
2017-06-24T13:10:15.115Z,12.77
2017-06-24T13:12:41.833Z,12.13
2017-06-24T13:15:08.513Z,11.80
2017-06-24T13:17:35.203Z,13.67
2017-06-24T13:20:01.881Z,12.97
2017-06-24T13:22:28.589Z,13.60
2017-06-24T13:24:55.287Z,13.23
2017-06-24T13:27:21.990Z,13.73
2017-06-24T13:29:48.715Z,13.67
2017-06-24T13:32:15.419Z,14.30
2017-06-24T13:34:42.104Z,13.37
2017-06-24T13:37:08.830Z,14.87
2017-06-24T13:39:35.524Z,14.80
2017-06-24T13:42:02.232Z,15.07
2017-06-24T13:44:28.956Z,14.07
2017-06-24T13:46:55.663Z,14.17
2017-06-24T13:49:22.344Z,14.77
2017-06-24T13:51:49.053Z,14.20
2017-06-24T13:54:15.742Z,14.93
2017-06-24T13:56:42.474Z,14.67
2017-06-24T13:59:09.181Z,15.50
2017-06-24T14:01:35.969Z,15.17
2017-06-24T14:04:02.680Z,15.53
2017-06-24T14:06:29.369Z,16.60
2017-06-24T14:08:56.048Z,17.17
2017-06-24T14:11:22.778Z,15.17
2017-06-24T14:13:49.474Z,15.77
2017-06-24T14:16:16.163Z,15.17
2017-06-24T14:18:42.905Z,16.07
2017-06-24T14:21:09.687Z,15.73
2017-06-24T14:23:36.381Z,17.07
2017-06-24T14:26:03.059Z,15.73
2017-06-24T14:28:29.760Z,16.17
2017-06-24T14:30:56.451Z,15.50
2017-06-24T14:33:23.144Z,17.40
2017-06-24T14:35:49.829Z,15.43
2017-06-24T14:38:16.531Z,15.67
2017-06-24T14:40:43.500Z,16.27
2017-06-24T14:43:10.198Z,15.20
2017-06-24T14:45:36.900Z,16.60
2017-06-24T14:48:03.573Z,22.17
2017-06-24T14:50:30.274Z,16.83
2017-06-24T14:52:56.941Z,16.53
2017-06-24T14:55:23.615Z,15.97
2017-06-24T14:57:50.333Z,16.23
2017-06-24T15:00:16.995Z,15.97
2017-06-24T15:02:43.708Z,17.00
2017-06-24T15:05:10.424Z,16.67
2017-06-24T15:07:37.083Z,16.73
2017-06-24T15:10:03.774Z,16.63
2017-06-24T15:12:30.459Z,16.33
2017-06-24T15:14:57.249Z,15.43
2017-06-24T15:17:23.942Z,16.20
2017-06-24T15:19:50.626Z,16.10
2017-06-24T15:22:17.323Z,14.60
2017-06-24T15:24:44.025Z,14.80
2017-06-24T15:27:10.754Z,15.83
2017-06-24T15:29:37.449Z,16.17
2017-06-24T15:32:04.166Z,15.93
2017-06-24T15:34:30.888Z,15.63
2017-06-24T15:36:57.587Z,15.73
2017-06-24T15:39:24.646Z,15.93
2017-06-24T15:41:51.396Z,16.30
2017-06-24T15:44:18.068Z,14.93
2017-06-24T15:46:44.756Z,17.60
2017-06-24T15:49:11.436Z,16.27
2017-06-24T15:51:38.131Z,15.03
2017-06-24T15:54:04.808Z,16.27
2017-06-24T15:56:31.481Z,15.53
2017-06-24T15:58:58.169Z,14.17
2017-06-24T16:01:24.825Z,15.57
2017-06-24T16:03:51.528Z,14.70
2017-06-24T16:06:18.248Z,14.27
2017-06-24T16:08:45.042Z,14.13
2017-06-24T16:11:11.735Z,14.87
2017-06-24T16:13:38.408Z,14.87
2017-06-24T16:16:05.095Z,14.70
2017-06-24T16:18:31.759Z,15.70
2017-06-24T16:20:58.445Z,14.97
2017-06-24T16:23:25.136Z,15.10
2017-06-24T16:25:51.825Z,15.00
2017-06-24T16:28:18.492Z,15.70
2017-06-24T16:30:45.203Z,16.60
2017-06-24T16:33:11.878Z,14.50
2017-06-24T16:35:38.572Z,15.47
2017-06-24T16:38:05.238Z,17.40
2017-06-24T16:40:31.934Z,16.93
2017-06-24T16:42:58.631Z,18.60
2017-06-24T16:45:25.288Z,17.90
2017-06-24T16:47:52.013Z,17.00
2017-06-24T16:50:18.678Z,19.07
2017-06-24T16:52:45.373Z,19.93
2017-06-24T16:55:12.040Z,19.47
2017-06-24T16:57:38.732Z,20.70
2017-06-24T17:00:05.453Z,20.67
2017-06-24T17:02:32.137Z,20.20
2017-06-24T17:04:58.837Z,21.77
2017-06-24T17:07:25.552Z,21.77
2017-06-24T17:09:52.335Z,23.20
2017-06-24T17:12:19.032Z,23.40
2017-06-24T17:14:45.799Z,22.20
2017-06-24T17:17:12.481Z,22.60
2017-06-24T17:19:39.159Z,23.00
2017-06-24T17:22:05.854Z,23.50
2017-06-24T17:24:32.789Z,24.37
2017-06-24T17:26:59.463Z,24.07
2017-06-24T17:29:26.166Z,24.80
2017-06-24T17:31:52.856Z,23.23
2017-06-24T17:34:19.544Z,24.80
2017-06-24T17:36:46.236Z,23.10
2017-06-24T17:39:12.945Z,25.00
2017-06-24T17:41:39.639Z,23.93
2017-06-24T17:44:06.333Z,24.77
2017-06-24T17:46:33.055Z,23.43
2017-06-24T17:48:59.779Z,23.90
2017-06-24T17:51:26.467Z,26.50
2017-06-24T17:53:53.246Z,26.10
2017-06-24T17:56:20.157Z,25.37
2017-06-24T17:58:46.830Z,23.97
2017-06-24T18:01:13.536Z,27.03
2017-06-24T18:03:40.209Z,24.43
2017-06-24T18:06:06.985Z,24.83
2017-06-24T18:08:33.751Z,27.50
2017-06-24T18:11:00.606Z,25.57
2017-06-24T18:13:27.288Z,26.30
2017-06-24T18:15:53.982Z,26.60
2017-06-24T18:18:20.676Z,24.43
2017-06-24T18:20:47.369Z,25.60
2017-06-24T18:23:14.055Z,25.90
2017-06-24T18:25:40.785Z,25.53
2017-06-24T18:28:07.467Z,25.60
2017-06-24T18:30:34.168Z,26.33
2017-06-24T18:33:00.850Z,25.43
2017-06-24T18:35:27.532Z,26.77
2017-06-24T18:37:54.280Z,25.40
2017-06-24T18:40:20.943Z,27.50
2017-06-24T18:42:47.631Z,26.47
2017-06-24T18:45:14.658Z,25.37
2017-06-24T18:47:41.356Z,24.53
2017-06-24T18:50:08.045Z,26.63
2017-06-24T18:52:34.730Z,25.00
2017-06-24T18:55:01.439Z,26.00
2017-06-24T18:57:28.198Z,25.97
2017-06-24T18:59:54.880Z,24.50
2017-06-24T19:02:21.564Z,25.77
2017-06-24T19:04:48.291Z,24.80
2017-06-24T19:07:14.987Z,25.37
2017-06-24T19:09:41.691Z,25.00
2017-06-24T19:12:08.381Z,25.10
2017-06-24T19:14:36.032Z,25.27
2017-06-24T19:17:02.744Z,25.60
2017-06-24T19:19:29.430Z,24.27
2017-06-24T19:21:56.127Z,25.90
2017-06-24T19:24:22.803Z,25.10
2017-06-24T19:26:49.502Z,25.77
2017-06-24T19:29:16.195Z,25.07
2017-06-24T19:31:42.892Z,26.57
2017-06-24T19:34:09.569Z,25.60
2017-06-24T19:36:36.259Z,26.40
2017-06-24T19:39:02.954Z,24.80
2017-06-24T19:41:29.644Z,24.93
2017-06-24T19:43:56.342Z,24.20
2017-06-24T19:46:23.023Z,25.97
2017-06-24T19:48:49.712Z,25.67
2017-06-24T19:51:16.388Z,25.73
2017-06-24T19:53:43.072Z,25.93
2017-06-24T19:56:09.807Z,25.50
2017-06-24T19:58:36.505Z,27.33
2017-06-24T20:01:03.192Z,28.37
2017-06-24T20:03:29.876Z,28.80
2017-06-24T20:05:56.561Z,28.37
2017-06-24T20:08:23.257Z,29.50
2017-06-24T20:10:49.945Z,29.77
2017-06-24T20:13:16.641Z,28.47
2017-06-24T20:15:43.381Z,29.73
2017-06-24T20:18:10.043Z,29.33
2017-06-24T20:20:36.704Z,29.13
2017-06-24T20:23:03.402Z,28.47
2017-06-24T20:26:08.303Z,26.27
2017-06-24T20:28:34.995Z,24.70
2017-06-24T20:31:01.656Z,24.90
2017-06-24T20:33:28.326Z,24.30
2017-06-24T20:35:55.016Z,25.53
2017-06-24T20:38:21.677Z,23.77
2017-06-24T20:40:48.483Z,22.53
2017-06-24T20:43:15.369Z,22.03
2017-06-24T20:45:42.600Z,21.47
2017-06-24T20:48:09.980Z,20.63
2017-06-24T20:50:37.805Z,19.70
2017-06-24T20:53:04.497Z,20.60
2017-06-24T20:55:31.167Z,22.03
2017-06-24T20:57:57.950Z,20.50
2017-06-24T21:00:26.322Z,20.87
2017-06-24T21:02:53.231Z,20.37
2017-06-24T21:05:21.071Z,22.60
2017-06-24T21:07:49.039Z,22.43
2017-06-24T21:10:16.177Z,21.40
2017-06-24T21:12:43.503Z,21.00
2017-06-24T21:15:10.680Z,20.50
2017-06-24T21:17:38.018Z,20.43
2017-06-24T21:20:05.024Z,22.03
2017-06-24T21:22:32.013Z,21.77
2017-06-24T21:24:59.166Z,21.60
2017-06-24T21:27:27.006Z,18.90
2017-06-24T21:29:54.149Z,18.70
2017-06-24T21:32:20.887Z,18.20
2017-06-24T21:34:47.569Z,19.10
2017-06-24T21:37:14.306Z,20.23
2017-06-24T21:39:41.066Z,18.40
2017-06-24T21:42:07.790Z,18.90
2017-06-24T21:44:34.452Z,16.40
2017-06-24T21:47:01.147Z,18.40
2017-06-24T21:49:27.825Z,18.30
2017-06-24T21:51:54.526Z,19.17
2017-06-24T21:54:21.204Z,18.70
2017-06-24T21:56:47.891Z,17.83
2017-06-24T21:59:14.588Z,16.10
2017-06-24T22:01:41.256Z,17.90
2017-06-24T22:04:07.981Z,17.27
2017-06-24T22:06:34.655Z,17.10
2017-06-24T22:09:01.458Z,18.17
2017-06-24T22:11:28.143Z,17.90
2017-06-24T22:13:54.889Z,17.30
2017-06-24T22:16:21.575Z,17.57
2017-06-24T22:18:48.250Z,18.03
2017-06-24T22:21:14.962Z,16.83
2017-06-24T22:23:41.634Z,18.47
2017-06-24T22:26:08.365Z,17.23
2017-06-24T22:28:35.050Z,15.60
2017-06-24T22:31:01.714Z,14.20
2017-06-24T22:33:28.396Z,15.23
2017-06-24T22:35:55.067Z,14.07
2017-06-24T22:38:21.728Z,15.60
2017-06-24T22:40:48.437Z,14.90
2017-06-24T22:43:15.115Z,14.63
2017-06-24T22:45:41.785Z,13.70
2017-06-24T22:48:09.509Z,13.93
2017-06-24T22:50:36.167Z,15.10
2017-06-24T22:53:02.888Z,12.90
2017-06-24T22:55:29.548Z,10.90
2017-06-24T22:57:56.227Z,9.53
2017-06-24T23:00:22.913Z,10.73
2017-06-24T23:02:49.607Z,10.10
2017-06-24T23:05:16.275Z,9.37
2017-06-24T23:07:42.935Z,9.88
2017-06-24T23:10:09.611Z,10.10
2017-06-24T23:12:36.293Z,8.57
2017-06-24T23:15:02.956Z,10.07
2017-06-24T23:17:29.651Z,9.00
2017-06-24T23:19:56.334Z,13.50
2017-06-24T23:22:23.023Z,9.80
2017-06-24T23:24:49.689Z,9.70
2017-06-24T23:27:16.367Z,9.20
2017-06-24T23:29:43.037Z,8.90
2017-06-24T23:32:09.703Z,7.40
2017-06-24T23:34:36.389Z,7.27
2017-06-24T23:37:03.067Z,8.83
2017-06-24T23:39:29.717Z,9.40
2017-06-24T23:41:56.390Z,7.63
2017-06-24T23:44:23.065Z,8.90
2017-06-24T23:46:49.727Z,9.40
2017-06-24T23:49:16.407Z,9.33
2017-06-24T23:51:43.075Z,9.67
2017-06-24T23:54:09.747Z,10.47
2017-06-24T23:56:36.444Z,10.63
